Time;durP1;ratioP1;P1;durP2;ratioP2;P2;SDS_P1;SDS_P2;PMS_P1;PMS_P2;Temp;Humidity;BMP_temperature;BMP_pressure;BME280_temperature;BME280_humidity;BME280_pressure;Samples;Min_cycle;Max_cycle;Signal;HPM_P1;HPM_P2
2022/05/13 00:02:05;;;;;;;15.13;10.87;;;;;;;13.36;78.46;99130.47;5051888;28;20165;-86
2022/05/13 00:04:30;;;;;;;14.90;10.50;;;;;;;15.17;78.84;99431.63;5052473;28;20169;-87
2022/05/13 00:06:56;;;;;;;14.87;10.17;;;;;;;16.11;78.45;99577.84;5052833;28;20248;-85
2022/05/13 00:09:56;;;;;;;14.50;10.57;;;;;;;13.28;77.98;99103.97;5054718;28;20647;-86
2022/05/13 00:12:07;;;;;;;17.07;10.00;;;;;;;13.62;77.25;99150.66;5055273;28;20176;-85
2022/05/13 00:14:32;;;;;;;17.63;10.53;;;;;;;13.62;77.05;99143.03;5054665;28;20173;-86
2022/05/13 00:16:58;;;;;;;16.67;10.50;;;;;;;14.37;76.61;99286.78;5037871;28;20196;-86
2022/05/13 00:19:23;;;;;;;16.23;10.33;;;;;;;14.13;75.30;99214.00;5055336;28;20618;-87
2022/05/13 00:21:48;;;;;;;14.77;10.50;;;;;;;12.48;76.90;99001.63;5054922;28;20178;-87
2022/05/13 00:24:14;;;;;;;16.27;9.97;;;;;;;13.65;76.67;99176.19;5036540;28;20169;-86
2022/05/13 00:26:39;;;;;;;14.10;10.17;;;;;;;15.43;76.66;99502.06;5055229;28;20201;-86
2022/05/13 00:29:05;;;;;;;14.03;10.43;;;;;;;12.60;75.90;99010.50;5053822;28;20169;-88
2022/05/13 00:31:30;;;;;;;18.30;10.70;;;;;;;13.45;76.49;99147.66;5068518;28;20173;-87
2022/05/13 00:33:55;;;;;;;21.57;11.50;;;;;;;16.06;76.61;99589.66;5074147;28;20169;-87
2022/05/13 00:36:21;;;;;;;16.63;11.87;;;;;;;13.73;76.53;99174.72;5068670;28;20220;-87
2022/05/13 00:38:47;;;;;;;16.77;10.33;;;;;;;12.61;77.20;99055.38;5055232;28;20166;-88
2022/05/13 00:41:13;;;;;;;14.83;10.70;;;;;;;12.88;79.89;99149.34;5037530;28;20170;-88
2022/05/13 00:43:46;;;;;;;14.37;10.23;;;;;;;15.07;81.35;99568.25;5037932;28;20161;-87
2022/05/13 00:46:12;;;;;;;14.47;10.07;;;;;;;12.72;81.99;99223.31;5055996;28;20240;-87
2022/05/13 00:48:38;;;;;;;15.10;9.77;;;;;;;12.34;82.14;99161.13;5060240;28;20188;-84
2022/05/13 00:51:06;;;;;;;14.57;9.80;;;;;;;11.93;82.23;99078.59;5047128;28;20169;-85
2022/05/13 00:53:34;;;;;;;17.53;10.30;;;;;;;11.85;82.78;99069.88;5059979;28;20246;-86
2022/05/13 00:55:59;;;;;;;12.80;9.30;;;;;;;14.97;81.92;99562.84;5055387;28;20160;-86
2022/05/13 00:58:25;;;;;;;12.70;9.70;;;;;;;14.74;80.62;99501.88;5056267;28;20653;-86
2022/05/13 01:00:50;;;;;;;15.43;9.67;;;;;;;12.69;79.77;99147.88;5055009;28;20187;-87
2022/05/13 01:03:16;;;;;;;16.20;10.10;;;;;;;13.87;79.33;99326.94;5055015;28;20165;-87
2022/05/13 01:05:46;;;;;;;14.70;9.47;;;;;;;15.39;78.64;99571.66;5036851;28;20201;-86
2022/05/13 01:08:12;;;;;;;15.93;10.20;;;;;;;15.47;77.86;99575.31;5038430;28;20180;-86
2022/05/13 01:10:40;;;;;;;15.07;10.10;;;;;;;13.19;77.14;99197.75;5079980;28;20169;-86
2022/05/13 01:13:10;;;;;;;19.87;10.43;;;;;;;15.36;77.34;99558.81;5073648;28;20560;-86
2022/05/13 01:15:42;;;;;;;15.07;10.13;;;;;;;12.63;77.16;99134.16;5041303;28;20174;-87
2022/05/13 01:18:08;;;;;;;14.10;9.97;;;;;;;12.70;76.73;99100.50;5034894;28;20162;-87
2022/05/13 01:20:50;;;;;;;14.10;9.83;;;;;;;13.38;77.05;99233.06;5016915;28;20170;-87
2022/05/13 01:23:17;;;;;;;16.77;10.00;;;;;;;15.38;77.36;99567.41;5016625;28;20552;-86
2022/05/13 01:26:16;;;;;;;13.17;9.70;;;;;;;14.29;76.84;99378.22;5034120;28;20201;-87
2022/05/13 01:28:46;;;;;;;13.07;9.63;;;;;;;15.38;78.34;99563.16;4918723;29;20717;-88
2022/05/13 01:31:20;;;;;;;15.07;9.90;;;;;;;15.05;79.12;99510.38;4934554;29;20242;-87
2022/05/13 01:33:45;;;;;;;15.00;10.10;;;;;;;12.64;78.10;99110.47;4919001;29;20197;-87
2022/05/13 01:36:12;;;;;;;15.67;9.90;;;;;;;13.47;79.39;99274.03;4923693;29;20232;-86
2022/05/13 01:38:39;;;;;;;17.40;9.90;;;;;;;13.31;79.68;99236.25;4937985;29;20184;-86
2022/05/13 01:41:07;;;;;;;17.70;9.77;;;;;;;15.31;79.41;99560.41;4953925;29;20182;-86
2022/05/13 01:43:33;;;;;;;15.00;10.23;;;;;;;14.12;78.65;99365.00;4953646;29;20177;-86
2022/05/13 01:45:59;;;;;;;16.70;10.20;;;;;;;14.27;78.78;99414.66;4952956;28;20217;-89
2022/05/13 01:48:27;;;;;;;14.67;9.70;;;;;;;12.07;78.33;99008.88;4955520;29;20169;-87
2022/05/13 01:50:52;;;;;;;15.77;10.03;;;;;;;12.95;77.78;99186.81;4955389;29;20172;-85
2022/05/13 01:53:18;;;;;;;14.00;9.53;;;;;;;14.24;78.48;99419.66;4955278;29;20189;-86
2022/05/13 01:55:43;;;;;;;12.60;9.07;;;;;;;13.91;78.06;99353.34;4955686;29;20584;-86
2022/05/13 01:58:14;;;;;;;11.67;8.83;;;;;;;15.21;78.09;99553.31;4954671;29;20173;-86
2022/05/13 02:00:41;;;;;;;14.30;9.10;;;;;;;14.32;79.17;99430.97;4953919;29;20175;-85
2022/05/13 02:05:51;;;;;;;14.27;9.30;;;;;;;13.44;78.77;99263.75;5007152;28;20591;-87
2022/05/13 02:08:16;;;;;;;12.70;8.73;;;;;;;15.13;78.40;99562.44;5033623;28;20166;-87
2022/05/13 02:10:43;;;;;;;13.90;8.70;;;;;;;14.44;78.65;99467.84;5035150;28;20181;-87
2022/05/13 02:13:10;;;;;;;12.27;9.00;;;;;;;14.58;78.63;99492.06;5035450;28;20162;-87
2022/05/13 02:15:36;;;;;;;13.53;8.83;;;;;;;13.29;78.72;99272.63;5034238;28;20249;-86
2022/05/13 02:18:01;;;;;;;15.50;10.10;;;;;;;13.41;79.27;99328.91;5033891;28;20201;-86
2022/05/13 02:20:27;;;;;;;12.80;9.20;;;;;;;14.06;78.63;99412.34;5016735;28;20178;-87
2022/05/13 02:22:52;;;;;;;15.20;9.17;;;;;;;13.24;79.92;99289.41;5017202;28;20166;-86
2022/05/13 02:25:18;;;;;;;12.80;9.50;;;;;;;12.80;79.44;99227.81;5050169;28;20276;-87
2022/05/13 02:27:43;;;;;;;15.90;9.27;;;;;;;14.88;79.37;99563.44;5053843;28;20165;-88
2022/05/13 02:30:10;;;;;;;13.30;8.57;;;;;;;13.81;79.10;99374.25;5056428;28;20165;-86
2022/05/13 02:32:35;;;;;;;15.07;8.73;;;;;;;13.28;79.42;99294.63;5054954;28;20172;-86
2022/05/13 02:35:00;;;;;;;12.53;8.67;;;;;;;12.67;79.61;99196.91;5037660;28;20169;-87
2022/05/13 02:37:26;;;;;;;16.00;9.70;;;;;;;13.32;79.19;99286.25;5037205;28;20273;-88
2022/05/13 02:39:52;;;;;;;14.33;9.33;;;;;;;12.80;79.33;99201.59;5053837;28;20161;-87
2022/05/13 02:42:17;;;;;;;22.67;9.33;;;;;;;12.27;79.68;99121.16;5035819;28;20213;-86
2022/05/13 02:44:44;;;;;;;18.70;9.50;;;;;;;12.76;79.68;99208.25;5053317;28;20243;-87
2022/05/13 02:47:09;;;;;;;21.77;9.77;;;;;;;14.39;78.91;99478.72;5054976;28;20161;-85
2022/05/13 02:49:35;;;;;;;18.10;9.07;;;;;;;13.34;79.27;99332.97;5037405;28;20171;-85
2022/05/13 02:52:00;;;;;;;12.67;8.80;;;;;;;12.01;79.15;99127.91;5052650;28;20196;-87
2022/05/13 02:54:26;;;;;;;13.37;9.20;;;;;;;12.07;78.04;99087.50;5052974;28;20628;-87
2022/05/13 02:56:51;;;;;;;11.37;8.20;;;;;;;11.99;77.75;99070.31;5052978;28;20161;-86
2022/05/13 02:59:16;;;;;;;12.57;8.87;;;;;;;14.17;78.08;99467.84;5053126;28;20184;-86
2022/05/13 03:01:42;;;;;;;14.20;8.80;;;;;;;12.58;78.32;99177.16;5052904;28;20193;-87
2022/05/13 03:04:07;;;;;;;12.93;9.20;;;;;;;14.18;77.78;99440.72;5041301;28;20170;-88
2022/05/13 03:06:33;;;;;;;10.80;9.00;;;;;;;13.06;78.46;99261.69;5032869;28;20196;-88
2022/05/13 03:08:58;;;;;;;15.33;9.60;;;;;;;14.28;78.42;99464.78;5015524;28;20602;-87
2022/05/13 03:11:24;;;;;;;14.13;8.70;;;;;;;12.35;78.49;99161.22;5033151;28;20253;-87
2022/05/13 03:13:51;;;;;;;12.07;8.23;;;;;;;14.18;78.42;99445.81;5032639;28;20248;-86
2022/05/13 03:16:21;;;;;;;11.60;8.17;;;;;;;14.99;78.21;99585.00;5032937;28;20567;-87
2022/05/13 03:18:55;;;;;;;12.37;8.70;;;;;;;13.43;78.45;99347.66;5014888;28;20166;-87
2022/05/13 03:21:22;;;;;;;17.60;9.03;;;;;;;13.08;78.49;99277.00;5033533;28;20673;-87
2022/05/13 03:23:48;;;;;;;12.00;8.37;;;;;;;13.14;78.47;99272.13;5015098;28;20166;-86
2022/05/13 03:26:16;;;;;;;11.53;8.53;;;;;;;12.70;78.63;99207.16;5037198;28;20196;-86
2022/05/13 03:28:43;;;;;;;12.33;8.87;;;;;;;14.39;78.53;99514.38;5056342;28;20174;-84
2022/05/13 03:31:09;;;;;;;15.93;8.93;;;;;;;12.85;78.46;99259.34;5057686;28;20193;-85
2022/05/13 03:33:35;;;;;;;17.27;9.33;;;;;;;14.84;79.57;99593.88;5035823;28;20544;-86
2022/05/13 03:36:00;;;;;;;15.33;9.00;;;;;;;14.46;79.20;99506.09;5015038;28;20225;-85
2022/05/13 03:38:26;;;;;;;14.13;8.50;;;;;;;11.32;78.86;98965.78;5014300;28;20706;-86
2022/05/13 03:40:52;;;;;;;17.67;9.47;;;;;;;14.96;78.66;99586.59;5018798;28;20190;-87
2022/05/13 03:43:18;;;;;;;13.27;9.17;;;;;;;15.13;78.25;99591.38;5040168;28;20652;-88
2022/05/13 03:45:43;;;;;;;19.80;10.10;;;;;;;15.15;78.29;99605.03;5052176;28;20251;-88
2022/05/13 03:48:10;;;;;;;20.53;10.27;;;;;;;13.83;77.64;99370.94;5034331;28;20192;-87
2022/05/13 03:50:38;;;;;;;22.97;11.73;;;;;;;12.46;76.66;99100.63;5034870;28;20601;-87
2022/05/13 03:53:04;;;;;;;26.77;14.27;;;;;;;15.08;78.14;99598.00;5033223;28;20173;-86
2022/05/13 03:55:31;;;;;;;21.57;12.00;;;;;;;15.00;79.01;99585.84;5053596;28;20227;-87
2022/05/13 03:57:57;;;;;;;17.63;10.07;;;;;;;12.69;79.98;99233.41;5035088;28;20169;-84
2022/05/13 04:00:23;;;;;;;19.10;9.87;;;;;;;14.53;81.04;99549.63;5037862;28;20250;-86
2022/05/13 04:02:49;;;;;;;17.77;9.97;;;;;;;12.27;80.09;99149.94;5035878;28;20610;-86
2022/05/13 04:10:44;;;;;;;17.43;9.13;;;;;;;13.79;80.60;99427.63;5059682;28;20253;-87
2022/05/13 04:16:08;;;;;;;18.70;9.97;;;;;;;14.89;78.29;99526.06;5036877;28;20201;-86
2022/05/13 04:18:45;;;;;;;19.40;10.27;;;;;;;15.41;76.49;99581.94;5035859;28;20181;-87
2022/05/13 04:21:16;;;;;;;15.97;9.47;;;;;;;15.60;76.63;99610.53;5016960;28;20189;-87
2022/05/13 04:23:45;;;;;;;14.83;9.40;;;;;;;15.06;78.84;99586.03;5024184;28;20541;-87
2022/05/13 04:26:12;;;;;;;15.00;9.57;;;;;;;15.53;79.08;99630.75;5016239;28;20237;-87
2022/05/13 04:28:39;;;;;;;13.37;9.70;;;;;;;12.80;77.80;99138.09;5014924;28;20218;-87
2022/05/13 04:31:05;;;;;;;20.90;10.67;;;;;;;14.34;77.04;99365.69;5012973;28;20181;-89
2022/05/13 04:33:30;;;;;;;16.67;10.30;;;;;;;14.59;76.22;99381.66;5026855;28;20232;-87
2022/05/13 04:35:55;;;;;;;15.00;9.60;;;;;;;15.61;75.45;99535.72;5036156;28;20265;-87
2022/05/13 04:38:21;;;;;;;22.43;10.40;;;;;;;16.48;74.26;99641.75;5035952;28;20185;-85
2022/05/13 04:40:46;;;;;;;20.97;10.90;;;;;;;15.25;74.31;99443.75;5054094;28;20181;-87
2022/05/13 04:43:12;;;;;;;15.03;10.87;;;;;;;13.63;73.65;99137.09;5043600;28;20641;-87
2022/05/13 04:45:37;;;;;;;13.80;10.07;;;;;;;14.73;73.77;99326.84;5019294;28;20745;-87
2022/05/13 04:48:16;;;;;;;14.13;10.20;;;;;;;16.48;74.72;99643.47;5017226;28;20341;-87
2022/05/13 04:50:58;;;;;;;12.50;10.23;;;;;;;14.82;77.99;99448.56;5016160;28;20189;-86
2022/05/13 04:53:35;;;;;;;16.33;10.23;;;;;;;16.10;78.75;99641.63;5014931;28;20278;-87
2022/05/13 04:56:05;;;;;;;17.07;10.67;;;;;;;15.48;78.22;99513.28;5033537;28;20177;-87
2022/05/13 04:58:30;;;;;;;18.43;10.47;;;;;;;16.33;79.03;99645.66;5034842;28;20182;-87
2022/05/13 05:00:57;;;;;;;17.17;10.90;;;;;;;16.49;78.73;99647.75;5033458;28;20261;-87
2022/05/13 05:03:27;;;;;;;16.00;9.97;;;;;;;14.68;76.63;99296.97;5033048;28;20178;-87
2022/05/13 05:05:52;;;;;;;17.33;10.40;;;;;;;15.58;75.05;99420.81;5034511;28;20614;-87
2022/05/13 05:08:17;;;;;;;16.10;9.73;;;;;;;15.40;74.22;99358.25;5021794;28;20200;-87
2022/05/13 05:10:45;;;;;;;17.20;9.87;;;;;;;14.75;74.54;99298.84;5033039;28;20193;-88
2022/05/13 05:13:20;;;;;;;17.43;9.63;;;;;;;15.86;73.82;99458.06;5005451;28;20226;-86
2022/05/13 05:15:45;;;;;;;17.10;10.47;;;;;;;15.45;74.76;99377.94;5033035;28;20650;-88
2022/05/13 05:18:14;;;;;;;16.57;9.90;;;;;;;16.45;73.07;99485.81;5032866;28;20256;-87
2022/05/13 05:20:41;;;;;;;17.70;9.43;;;;;;;16.07;72.58;99414.28;5031419;28;20597;-86
2022/05/13 05:23:07;;;;;;;16.77;10.10;;;;;;;16.77;73.48;99542.78;5015098;28;20190;-88
2022/05/13 05:25:33;;;;;;;13.43;9.57;;;;;;;17.10;74.11;99609.13;5015061;28;20198;-87
2022/05/13 05:27:59;;;;;;;13.50;9.93;;;;;;;15.19;72.71;99249.78;5032950;28;20192;-87
2022/05/13 05:30:25;;;;;;;14.67;10.03;;;;;;;15.67;74.46;99413.38;5032755;28;20178;-88
2022/05/13 05:32:51;;;;;;;22.80;10.23;;;;;;;15.92;75.36;99441.22;5031037;28;20673;-87
2022/05/13 05:35:21;;;;;;;19.50;9.77;;;;;;;17.61;73.81;99657.94;5014925;28;20239;-87
2022/05/13 05:37:46;;;;;;;17.57;10.37;;;;;;;17.57;70.90;99579.38;5049044;28;20251;-86
2022/05/13 05:40:12;;;;;;;21.10;9.53;;;;;;;18.30;68.49;99640.44;5052069;28;20184;-85
2022/05/13 05:42:39;;;;;;;13.53;9.10;;;;;;;18.75;66.10;99641.22;5052995;28;20204;-87
2022/05/13 05:45:08;;;;;;;12.57;8.17;;;;;;;18.41;63.74;99518.41;5052335;28;20223;-85
2022/05/13 05:47:34;;;;;;;19.03;9.43;;;;;;;18.78;62.68;99573.69;5052157;28;20260;-85
2022/05/13 05:50:00;;;;;;;19.63;8.70;;;;;;;18.56;60.79;99498.16;5034485;28;20178;-84
2022/05/13 05:52:26;;;;;;;13.20;8.43;;;;;;;17.90;60.81;99398.13;5052037;28;20231;-85
2022/05/13 05:57:35;;;;;;;10.73;8.40;;;;;;;15.74;62.44;99108.94;5046167;28;20581;-84
2022/05/13 06:00:04;;;;;;;10.50;7.63;;;;;;;18.69;60.60;99569.28;5015139;28;20194;-87
2022/05/13 06:02:29;;;;;;;11.10;7.53;;;;;;;19.34;59.88;99639.44;5049037;28;20185;-84
2022/05/13 06:04:55;;;;;;;10.80;7.60;;;;;;;17.76;59.64;99386.81;5040256;28;20239;-84
2022/05/13 06:07:20;;;;;;;10.93;8.00;;;;;;;16.53;61.47;99258.56;5038252;28;20243;-84
2022/05/13 06:09:45;;;;;;;11.47;7.87;;;;;;;16.35;61.05;99173.88;5051405;28;20849;-84
2022/05/13 06:12:13;;;;;;;10.27;7.70;;;;;;;18.18;61.68;99461.69;5027747;28;20247;-85
2022/05/13 06:14:39;;;;;;;15.17;8.30;;;;;;;18.85;60.19;99509.66;5031585;28;20631;-86
2022/05/13 06:17:05;;;;;;;12.57;8.20;;;;;;;18.62;58.13;99371.75;5031721;28;20220;-84
2022/05/13 06:19:31;;;;;;;13.23;7.50;;;;;;;19.03;57.45;99395.25;5032144;28;20186;-86
2022/05/13 06:21:56;;;;;;;11.70;7.67;;;;;;;18.93;56.91;99372.88;5032189;28;20251;-85
2022/05/13 06:24:22;;;;;;;10.27;7.60;;;;;;;20.03;56.42;99526.28;5047160;28;20183;-84
2022/05/13 06:26:49;;;;;;;9.47;7.60;;;;;;;20.26;56.83;99544.50;5033607;28;20291;-83
2022/05/13 06:29:16;;;;;;;11.67;8.20;;;;;;;20.79;55.96;99623.75;5036792;28;20568;-84
2022/05/13 06:31:42;;;;;;;10.73;7.50;;;;;;;20.07;55.73;99469.78;5050709;28;20185;-85
2022/05/13 06:34:08;;;;;;;15.60;8.10;;;;;;;19.96;54.52;99438.88;5051122;28;20280;-84
2022/05/13 06:36:34;;;;;;;9.90;8.10;;;;;;;20.71;55.69;99625.41;5029571;28;20698;-84
2022/05/13 06:39:00;;;;;;;11.23;8.50;;;;;;;20.65;56.56;99633.94;5033357;28;20198;-85
2022/05/13 06:41:26;;;;;;;13.80;8.33;;;;;;;20.76;56.26;99628.88;5028856;28;20759;-85
2022/05/13 06:43:52;;;;;;;12.23;8.97;;;;;;;18.32;54.67;99156.06;5034432;28;20194;-86
2022/05/13 06:46:18;;;;;;;12.27;8.70;;;;;;;19.25;53.27;99202.09;5032511;28;20654;-84
2022/05/13 06:48:44;;;;;;;15.53;8.40;;;;;;;20.61;52.37;99364.63;5034971;28;20186;-84
2022/05/13 06:51:09;;;;;;;16.70;8.70;;;;;;;22.22;51.97;99589.91;5029574;28;20253;-84
2022/05/13 06:53:35;;;;;;;15.07;8.50;;;;;;;20.95;51.64;99361.31;5036993;28;20205;-85
2022/05/13 06:56:00;;;;;;;12.43;8.43;;;;;;;21.18;52.54;99484.94;5032005;28;20556;-85
2022/05/13 06:58:27;;;;;;;17.70;8.40;;;;;;;20.95;52.34;99386.19;5038670;28;20181;-85
2022/05/13 07:00:52;;;;;;;20.40;8.20;;;;;;;22.64;51.65;99620.00;5036611;28;20185;-84
2022/05/13 07:03:19;;;;;;;10.50;8.53;;;;;;;22.32;52.17;99604.53;5038948;28;20185;-86
2022/05/13 07:05:45;;;;;;;10.47;7.80;;;;;;;21.05;51.25;99344.13;5037588;28;20256;-86
2022/05/13 07:08:11;;;;;;;12.83;7.93;;;;;;;21.47;50.31;99349.34;5030065;28;20329;-85
2022/05/13 07:10:40;;;;;;;12.20;8.17;;;;;;;23.39;49.30;99606.91;5033205;28;20197;-85
2022/05/13 07:13:08;;;;;;;15.00;8.07;;;;;;;22.71;50.72;99601.09;5023827;28;20233;-84
2022/05/13 07:15:33;;;;;;;14.73;7.93;;;;;;;21.64;49.41;99349.31;5044752;28;20181;-85
2022/05/13 07:17:59;;;;;;;13.47;8.57;;;;;;;21.20;48.76;99206.84;5045081;28;20193;-85
2022/05/13 07:20:28;;;;;;;14.07;7.63;;;;;;;23.50;48.20;99575.84;5030161;28;20194;-85
2022/05/13 07:22:55;;;;;;;11.93;7.73;;;;;;;23.62;48.04;99588.72;5036786;28;20190;-87
2022/05/13 07:25:21;;;;;;;12.90;8.10;;;;;;;24.05;47.79;99608.25;5025093;28;20219;-84
2022/05/13 07:27:46;;;;;;;11.20;7.57;;;;;;;23.18;47.28;99425.28;5036869;28;20657;-85
2022/05/13 07:30:12;;;;;;;9.60;8.20;;;;;;;22.39;48.56;99415.31;5036917;28;20185;-86
2022/05/13 07:32:38;;;;;;;12.47;7.87;;;;;;;22.21;49.69;99441.19;5036409;28;20553;-84
2022/05/13 07:35:05;;;;;;;14.40;8.10;;;;;;;22.02;49.36;99328.63;5043928;28;20200;-85
2022/05/13 07:37:30;;;;;;;13.57;8.00;;;;;;;21.22;49.05;99195.69;5057019;28;20766;-85
2022/05/13 07:42:40;;;;;;;11.93;8.80;;;;;;;24.07;47.95;99575.47;5063063;28;20671;-86
2022/05/13 07:45:06;;;;;;;11.33;8.13;;;;;;;23.66;46.33;99400.81;5065440;28;20212;-85
2022/05/13 07:47:31;;;;;;;11.30;8.43;;;;;;;23.19;46.05;99341.75;5060659;28;20687;-85
2022/05/13 07:49:57;;;;;;;10.93;8.10;;;;;;;25.02;45.17;99607.41;5053460;28;20268;-84
2022/05/13 07:52:24;;;;;;;11.33;7.70;;;;;;;22.53;45.98;99199.38;5062282;28;20569;-84
2022/05/13 07:54:50;;;;;;;12.90;7.80;;;;;;;24.74;46.00;99595.59;5060953;28;20190;-85
2022/05/13 07:57:15;;;;;;;12.63;8.20;;;;;;;25.43;44.99;99591.34;5051743;28;20262;-84
2022/05/13 08:02:25;;;;;;;12.67;8.27;;;;;;;24.71;43.15;99409.19;5066835;28;20196;-85
2022/05/13 08:04:50;;;;;;;10.90;7.93;;;;;;;23.78;44.08;99427.44;5059214;28;20575;-84
2022/05/13 08:07:15;;;;;;;10.77;7.87;;;;;;;23.48;44.22;99342.41;5047100;28;20689;-85
2022/05/13 08:09:41;;;;;;;11.33;7.70;;;;;;;25.27;43.10;99493.09;5057895;28;20230;-85
2022/05/13 08:12:07;;;;;;;11.73;7.67;;;;;;;26.30;40.74;99580.59;5033766;28;20893;-86
2022/05/13 08:14:32;;;;;;;12.40;7.40;;;;;;;24.63;39.97;99299.69;5052251;28;20192;-85
2022/05/13 08:16:57;;;;;;;9.20;7.10;;;;;;;25.74;40.69;99475.09;5065030;28;20189;-84
2022/05/13 08:19:23;;;;;;;10.67;7.33;;;;;;;26.54;40.60;99548.13;5061817;28;20193;-85
2022/05/13 08:21:48;;;;;;;12.07;7.63;;;;;;;26.04;38.72;99412.28;5043063;28;20188;-83
2022/05/13 08:24:14;;;;;;;9.97;7.53;;;;;;;26.10;39.06;99437.28;5050240;28;20205;-86
2022/05/13 08:26:39;;;;;;;8.57;6.70;;;;;;;26.84;37.90;99553.63;5054121;28;20239;-85
2022/05/13 08:29:05;;;;;;;10.83;7.87;;;;;;;26.89;38.25;99592.53;5045055;28;20212;-86
2022/05/13 08:31:30;;;;;;;9.33;7.47;;;;;;;26.56;37.92;99541.19;5057875;28;20270;-84
2022/05/13 08:33:56;;;;;;;9.63;7.50;;;;;;;25.24;37.66;99297.03;5051182;28;20253;-86
2022/05/13 08:36:21;;;;;;;9.98;7.15;;;;;;;26.60;37.65;99551.47;5033034;28;20268;-86
2022/05/13 08:38:49;;;;;;;8.13;7.33;;;;;;;26.19;39.21;99528.84;5030869;28;20193;-86
2022/05/13 08:41:24;;;;;;;10.77;7.27;;;;;;;26.46;38.53;99539.63;5036853;28;20618;-85
2022/05/13 08:44:01;;;;;;;11.20;7.97;;;;;;;26.18;38.22;99396.50;5037118;28;20280;-86
2022/05/13 08:46:42;;;;;;;10.75;8.18;;;;;;;27.15;37.47;99543.47;5035321;28;20251;-86
2022/05/13 08:49:26;;;;;;;10.88;7.50;;;;;;;27.85;36.96;99573.16;5026933;28;20198;-86
2022/05/13 08:51:52;;;;;;;17.30;8.30;;;;;;;27.76;37.49;99573.38;5032910;28;20188;-86
2022/05/13 08:54:21;;;;;;;10.85;7.90;;;;;;;26.17;36.15;99239.94;5029064;28;20568;-84
2022/05/13 08:56:56;;;;;;;12.73;9.10;;;;;;;28.00;36.36;99578.00;5041756;28;20577;-85
2022/05/13 08:59:40;;;;;;;14.65;8.15;;;;;;;28.23;36.14;99569.66;5014227;28;20295;-85
2022/05/13 09:02:12;;;;;;;16.70;9.25;;;;;;;28.42;36.23;99561.34;5042350;28;20691;-86
2022/05/13 09:04:43;;;;;;;14.40;8.38;;;;;;;28.00;36.65;99560.63;5041809;28;20189;-87
2022/05/13 09:07:16;;;;;;;14.02;7.97;;;;;;;27.64;36.13;99447.03;5031105;28;20201;-85
2022/05/13 09:09:44;;;;;;;11.95;8.18;;;;;;;27.73;36.14;99491.03;5048576;28;20186;-85
2022/05/13 09:12:18;;;;;;;12.65;7.93;;;;;;;28.82;35.79;99561.16;5008902;28;29839;-86
2022/05/13 09:14:50;;;;;;;14.48;8.75;;;;;;;28.24;36.05;99495.88;5015226;28;20217;-85
2022/05/13 09:17:22;;;;;;;15.73;8.93;;;;;;;27.98;36.09;99403.66;5047124;28;20522;-85
2022/05/13 09:19:57;;;;;;;17.42;12.30;;;;;;;29.08;34.71;99550.00;5035722;28;20185;-88
2022/05/13 09:22:22;;;;;;;14.10;8.57;;;;;;;26.81;35.56;99231.53;5037734;28;20191;-86
2022/05/13 09:24:48;;;;;;;12.82;8.57;;;;;;;28.12;36.38;99441.50;5032753;28;20806;-86
2022/05/13 09:27:14;;;;;;;14.52;9.10;;;;;;;28.58;36.18;99540.94;5036308;28;20208;-86
2022/05/13 09:29:41;;;;;;;16.73;8.95;;;;;;;27.97;36.79;99528.59;5043907;28;20196;-85
2022/05/13 09:32:14;;;;;;;14.15;9.38;;;;;;;26.87;37.20;99417.59;5037784;28;20195;-84
2022/05/13 09:34:49;;;;;;;11.18;8.75;;;;;;;26.10;37.06;99271.19;5022795;28;20187;-85
2022/05/13 09:37:24;;;;;;;14.38;9.23;;;;;;;27.93;37.51;99524.38;5047422;28;20230;-84
2022/05/13 09:40:05;;;;;;;14.48;8.50;;;;;;;28.07;36.14;99519.72;5032807;28;20185;-86
2022/05/13 09:42:37;;;;;;;17.52;8.68;;;;;;;26.52;35.68;99204.50;5031779;28;20220;-86
2022/05/13 09:45:18;;;;;;;14.93;8.77;;;;;;;28.72;35.52;99522.38;5038719;28;20210;-86
2022/05/13 09:47:57;;;;;;;14.48;8.77;;;;;;;27.66;35.86;99316.91;5034145;28;20248;-85
2022/05/13 09:50:29;;;;;;;11.82;8.27;;;;;;;28.58;36.33;99507.94;5015214;28;20191;-84
2022/05/13 09:53:06;;;;;;;12.52;8.57;;;;;;;25.58;37.00;99006.88;5046607;28;20247;-84
2022/05/13 09:55:40;;;;;;;12.32;8.30;;;;;;;28.12;36.48;99412.84;5033197;28;20194;-86
2022/05/13 09:58:15;;;;;;;11.13;7.53;;;;;;;27.11;36.06;99276.72;5030128;28;20191;-85
2022/05/13 10:00:42;;;;;;;10.80;7.72;;;;;;;26.12;36.40;99150.88;5022647;28;20617;-85
2022/05/13 10:03:17;;;;;;;10.73;7.82;;;;;;;28.40;36.47;99484.16;5031084;28;20184;-85
2022/05/13 10:05:43;;;;;;;10.88;7.82;;;;;;;28.56;36.85;99472.41;5031195;28;20209;-84
2022/05/13 10:08:14;;;;;;;13.10;7.82;;;;;;;28.52;36.13;99469.03;5030519;28;20209;-85
2022/05/13 10:14:00;;;;;;;11.25;7.60;;;;;;;28.92;35.75;99467.91;5028131;28;21104;-84
2022/05/13 10:16:47;;;;;;;14.57;7.60;;;;;;;28.18;36.81;99413.56;5019108;28;20664;-85
2022/05/13 10:19:43;;;;;;;10.13;7.50;;;;;;;28.67;36.58;99450.41;5036413;28;20645;-87
2022/05/13 10:22:36;;;;;;;9.75;7.28;;;;;;;29.00;35.90;99447.69;5031871;28;20191;-87
2022/05/13 10:25:08;;;;;;;12.02;7.45;;;;;;;28.93;35.28;99448.75;5037045;28;20674;-86
2022/05/13 10:27:47;;;;;;;12.48;6.43;;;;;;;28.86;33.92;99444.63;5037721;28;20199;-86
2022/05/13 10:30:23;;;;;;;9.13;6.50;;;;;;;28.22;33.44;99339.66;5025434;28;20186;-86
2022/05/13 10:32:59;;;;;;;9.07;6.68;;;;;;;29.21;33.01;99444.41;5027233;28;20193;-86
2022/05/13 10:35:32;;;;;;;9.05;7.00;;;;;;;27.25;33.18;99103.00;5010707;28;20201;-86
2022/05/13 10:38:19;;;;;;;10.23;7.50;;;;;;;29.15;34.29;99437.63;5048770;28;20222;-88
2022/05/13 10:40:47;;;;;;;7.07;6.05;;;;;;;27.92;33.07;99304.03;5061960;28;20267;-87
2022/05/13 10:44:05;;;;;;;9.02;6.07;;;;;;;28.84;33.28;99426.44;5055771;28;20181;-87
2022/05/13 10:46:39;;;;;;;6.38;5.53;;;;;;;28.75;32.81;99421.50;4985969;28;20241;-86
2022/05/13 10:49:05;;;;;;;10.93;7.10;;;;;;;27.76;34.73;99271.53;4987427;28;20231;-87
2022/05/13 10:51:30;;;;;;;9.18;6.43;;;;;;;28.21;35.52;99412.63;4970261;28;20558;-87
2022/05/13 10:53:55;;;;;;;8.75;6.80;;;;;;;28.58;34.79;99416.75;4989440;28;20916;-87
2022/05/13 10:56:53;;;;;;;9.40;6.10;;;;;;;28.27;34.69;99309.13;4989484;28;20666;-87
2022/05/13 10:59:38;;;;;;;8.88;5.93;;;;;;;28.00;35.61;99359.34;4991123;28;20256;-87
2022/05/13 11:02:27;;;;;;;9.02;6.72;;;;;;;28.48;35.17;99393.59;4957723;28;20195;-87
2022/05/13 11:05:08;;;;;;;8.25;6.10;;;;;;;28.57;34.70;99388.09;4989313;28;20341;-86
2022/05/13 11:07:44;;;;;;;9.35;6.05;;;;;;;27.77;33.76;99294.06;4988421;28;20592;-88
2022/05/13 11:10:28;;;;;;;8.70;5.97;;;;;;;28.49;33.83;99385.72;4983098;28;20291;-86
2022/05/13 11:13:32;;;;;;;9.77;6.43;;;;;;;28.24;34.40;99384.72;4978739;28;20236;-86
2022/05/13 11:16:07;;;;;;;10.55;6.57;;;;;;;27.46;35.02;99250.69;4992215;28;20658;-87
2022/05/13 11:18:48;;;;;;;7.60;6.40;;;;;;;28.61;34.73;99380.19;5048677;28;20226;-86
2022/05/13 11:21:44;;;;;;;7.95;6.13;;;;;;;29.31;33.47;99378.03;5048983;28;20183;-86
2022/05/13 11:27:07;;;;;;;11.00;6.20;;;;;;;30.00;32.65;99332.19;5055524;28;20567;-87
2022/05/13 11:30:01;;;;;;;6.30;5.30;;;;;;;30.32;32.11;99355.41;5058308;28;20179;-86
2022/05/13 11:32:41;;;;;;;9.13;5.75;;;;;;;30.20;30.28;99168.63;4969377;28;20289;-87
2022/05/13 11:35:41;;;;;;;8.70;5.38;;;;;;;32.47;29.33;99356.97;4982383;28;20293;-87
2022/05/13 11:38:29;;;;;;;9.27;6.00;;;;;;;33.07;28.20;99269.31;4964446;28;20850;-86
2022/05/13 11:41:08;;;;;;;5.72;5.20;;;;;;;32.52;28.44;99340.09;4926763;29;20208;-88
2022/05/13 11:43:47;;;;;;;7.47;5.47;;;;;;;32.64;28.06;99347.41;4925726;29;20206;-86
2022/05/13 11:46:50;;;;;;;6.50;5.50;;;;;;;33.03;28.09;99336.78;4936213;29;20233;-87
2022/05/13 11:49:26;;;;;;;5.90;5.30;;;;;;;32.67;27.01;99175.97;4910364;29;20202;-86
2022/05/13 11:51:53;;;;;;;8.48;5.40;;;;;;;34.24;26.28;99335.88;4927006;29;20608;-86
2022/05/13 11:54:27;;;;;;;10.57;5.88;;;;;;;34.09;27.01;99331.41;4933194;29;20682;-86
2022/05/13 11:57:40;;;;;;;5.68;5.07;;;;;;;33.97;26.44;99332.03;4928279;29;21004;-87
2022/05/13 12:00:40;;;;;;;7.00;4.90;;;;;;;33.47;26.25;99323.25;4899044;29;20182;-87
2022/05/13 12:03:08;;;;;;;7.88;5.22;;;;;;;34.14;24.91;99328.56;4902114;29;20206;-87